Time;durP1;ratioP1;P1;durP2;ratioP2;P2;SDS_P1;SDS_P2;PMS_P1;PMS_P2;Temp;Humidity;BMP_temperature;BMP_pressure;BME280_temperature;BME280_humidity;BME280_pressure;Samples;Min_cycle;Max_cycle;Signal;HPM_P1;HPM_P2
2019/11/02 00:00:55;;;;;;;20.7;16.9;;;;;;;9.75;100;94076.18;;;;
2019/11/02 00:01:57;;;;;;;22.6;16.7;;;;;;;9.7;100;94066.28;;;;
2019/11/02 00:03:06;;;;;;;22.6;16.7;;;;;;;9.7;100;94066.28;;;;
2019/11/02 00:09:16;;;;;;;22.6;16.7;;;;;;;9.7;100;94066.28;;;;
2019/11/02 00:10:18;;;;;;;22.6;16.7;;;;;;;9.7;100;94066.28;;;;
2019/11/02 00:11:19;;;;;;;22.6;16.7;;;;;;;9.7;100;94066.28;;;;
2019/11/02 00:12:20;;;;;;;18.15;15.25;;;;;;;9.71;100;94036.92;;;;
2019/11/02 00:13:21;;;;;;;18.15;15.25;;;;;;;9.71;100;94036.92;;;;
2019/11/02 00:14:22;;;;;;;18.15;15.25;;;;;;;9.71;100;94036.92;;;;
2019/11/02 00:15:24;;;;;;;18.15;15.25;;;;;;;9.71;100;94036.92;;;;
2019/11/02 00:16:29;;;;;;;18.15;15.25;;;;;;;9.71;100;94036.92;;;;
2019/11/02 00:17:30;;;;;;;18.15;15.25;;;;;;;9.71;100;94036.92;;;;
2019/11/02 00:18:31;;;;;;;18.15;15.25;;;;;;;9.71;100;94036.92;;;;
2019/11/02 00:19:32;;;;;;;18.15;15.25;;;;;;;9.71;100;94036.92;;;;
2019/11/02 00:20:33;;;;;;;18.15;15.25;;;;;;;9.71;100;94036.92;;;;
2019/11/02 00:21:34;;;;;;;18.15;15.25;;;;;;;9.71;100;94036.92;;;;
2019/11/02 00:22:36;;;;;;;18.15;15.25;;;;;;;9.71;100;94036.92;;;;
2019/11/02 00:23:37;;;;;;;19.85;15.8;;;;;;;9.7;100;94032.59;;;;
2019/11/02 00:24:38;;;;;;;19.85;15.8;;;;;;;9.7;100;94032.59;;;;
2019/11/02 00:25:39;;;;;;;19.85;15.8;;;;;;;9.7;100;94032.59;;;;
2019/11/02 00:26:40;;;;;;;19.85;15.8;;;;;;;9.7;100;94032.59;;;;
2019/11/02 00:27:41;;;;;;;19.85;15.8;;;;;;;9.7;100;94032.59;;;;
2019/11/02 00:28:42;;;;;;;19.85;15.8;;;;;;;9.7;100;94032.59;;;;
2019/11/02 00:29:43;;;;;;;19.85;15.8;;;;;;;9.7;100;94032.59;;;;
2019/11/02 00:30:45;;;;;;;19.85;15.8;;;;;;;9.7;100;94032.59;;;;
2019/11/02 00:31:46;;;;;;;19.85;15.8;;;;;;;9.7;100;94032.59;;;;
2019/11/02 00:32:47;;;;;;;19.85;15.8;;;;;;;9.7;100;94032.59;;;;
2019/11/02 00:33:48;;;;;;;20.45;16.8;;;;;;;9.75;100;94013.78;;;;
2019/11/02 00:34:49;;;;;;;20.45;16.8;;;;;;;9.75;100;94013.78;;;;
2019/11/02 00:35:50;;;;;;;20.45;16.8;;;;;;;9.75;100;94013.78;;;;
2019/11/02 00:36:51;;;;;;;20.45;16.8;;;;;;;9.75;100;94013.78;;;;
2019/11/02 00:37:53;;;;;;;20.45;16.8;;;;;;;9.75;100;94013.78;;;;
2019/11/02 00:38:54;;;;;;;20.45;16.8;;;;;;;9.75;100;94013.78;;;;
2019/11/02 00:39:55;;;;;;;20.45;16.8;;;;;;;9.75;100;94013.78;;;;
2019/11/02 00:40:56;;;;;;;20.45;16.8;;;;;;;9.75;100;94013.78;;;;
2019/11/02 00:41:57;;;;;;;20.45;16.8;;;;;;;9.75;100;94013.78;;;;
2019/11/02 00:42:58;;;;;;;20.45;16.8;;;;;;;9.75;100;94013.78;;;;
2019/11/02 00:44:00;;;;;;;19.65;15.65;;;;;;;9.74;100;93998.66;;;;
2019/11/02 00:45:01;;;;;;;19.65;15.65;;;;;;;9.74;100;93998.66;;;;
2019/11/02 00:46:03;;;;;;;19.65;15.65;;;;;;;9.74;100;93998.66;;;;
2019/11/02 00:47:04;;;;;;;19.65;15.65;;;;;;;9.74;100;93998.66;;;;
2019/11/02 00:48:06;;;;;;;19.65;15.65;;;;;;;9.74;100;93998.66;;;;
2019/11/02 00:49:08;;;;;;;19.65;15.65;;;;;;;9.74;100;93998.66;;;;
2019/11/02 00:50:09;;;;;;;19.65;15.65;;;;;;;9.74;100;93998.66;;;;
2019/11/02 00:51:10;;;;;;;19.65;15.65;;;;;;;9.74;100;93998.66;;;;
2019/11/02 00:52:12;;;;;;;19.65;15.65;;;;;;;9.74;100;93998.66;;;;
2019/11/02 00:53:13;;;;;;;19.65;15.65;;;;;;;9.74;100;93998.66;;;;
2019/11/02 00:54:14;;;;;;;19.65;15.65;;;;;;;9.74;100;93998.66;;;;
2019/11/02 00:55:15;;;;;;;15.55;13.3;;;;;;;9.77;100;93987.38;;;;
2019/11/02 00:56:16;;;;;;;15.55;13.3;;;;;;;9.77;100;93987.38;;;;
2019/11/02 00:57:17;;;;;;;15.55;13.3;;;;;;;9.77;100;93987.38;;;;
2019/11/02 00:58:18;;;;;;;15.55;13.3;;;;;;;9.77;100;93987.38;;;;
2019/11/02 00:59:19;;;;;;;15.55;13.3;;;;;;;9.77;100;93987.38;;;;
2019/11/02 01:00:21;;;;;;;15.55;13.3;;;;;;;9.77;100;93987.38;;;;
2019/11/02 01:01:22;;;;;;;15.55;13.3;;;;;;;9.77;100;93987.38;;;;
2019/11/02 01:02:23;;;;;;;15.55;13.3;;;;;;;9.77;100;93987.38;;;;
2019/11/02 01:03:24;;;;;;;15.55;13.3;;;;;;;9.77;100;93987.38;;;;
2019/11/02 01:04:26;;;;;;;15.55;13.3;;;;;;;9.77;100;93987.38;;;;
2019/11/02 01:05:27;;;;;;;16.95;12.05;;;;;;;9.77;100;93973.75;;;;
2019/11/02 01:06:28;;;;;;;16.95;12.05;;;;;;;9.77;100;93973.75;;;;
2019/11/02 01:07:29;;;;;;;16.95;12.05;;;;;;;9.77;100;93973.75;;;;
2019/11/02 01:08:30;;;;;;;16.95;12.05;;;;;;;9.77;100;93973.75;;;;
2019/11/02 01:09:31;;;;;;;16.95;12.05;;;;;;;9.77;100;93973.75;;;;
2019/11/02 01:11:05;;;;;;;16.95;12.05;;;;;;;9.77;100;93973.75;;;;
2019/11/02 01:12:07;;;;;;;16.95;12.05;;;;;;;9.77;100;93973.75;;;;
2019/11/02 01:13:24;;;;;;;16.95;12.05;;;;;;;9.77;100;93973.75;;;;
2019/11/02 01:14:25;;;;;;;16.95;12.05;;;;;;;9.77;100;93973.75;;;;
2019/11/02 01:15:26;;;;;;;16.95;12.05;;;;;;;9.77;100;93973.75;;;;
2019/11/02 01:16:48;;;;;;;12.85;11.2;;;;;;;9.83;100;93966.5;;;;
2019/11/02 01:17:49;;;;;;;12.85;11.2;;;;;;;9.83;100;93966.5;;;;
2019/11/02 01:18:50;;;;;;;12.85;11.2;;;;;;;9.83;100;93966.5;;;;
2019/11/02 01:19:51;;;;;;;12.85;11.2;;;;;;;9.83;100;93966.5;;;;
2019/11/02 01:20:52;;;;;;;12.85;11.2;;;;;;;9.83;100;93966.5;;;;
2019/11/02 01:22:00;;;;;;;12.85;11.2;;;;;;;9.83;100;93966.5;;;;
2019/11/02 01:23:01;;;;;;;12.85;11.2;;;;;;;9.83;100;93966.5;;;;
2019/11/02 01:24:02;;;;;;;12.85;11.2;;;;;;;9.83;100;93966.5;;;;
2019/11/02 01:25:04;;;;;;;12.85;11.2;;;;;;;9.83;100;93966.5;;;;
2019/11/02 01:26:05;;;;;;;12.85;11.2;;;;;;;9.83;100;93966.5;;;;
2019/11/02 01:27:07;;;;;;;13.1;11.7;;;;;;;9.82;100;93948.16;;;;
2019/11/02 01:28:08;;;;;;;13.1;11.7;;;;;;;9.82;100;93948.16;;;;
2019/11/02 01:29:09;;;;;;;13.1;11.7;;;;;;;9.82;100;93948.16;;;;
2019/11/02 01:30:10;;;;;;;13.1;11.7;;;;;;;9.82;100;93948.16;;;;
2019/11/02 01:31:11;;;;;;;13.1;11.7;;;;;;;9.82;100;93948.16;;;;
2019/11/02 01:32:14;;;;;;;13.1;11.7;;;;;;;9.82;100;93948.16;;;;
2019/11/02 01:33:15;;;;;;;13.1;11.7;;;;;;;9.82;100;93948.16;;;;
2019/11/02 01:34:17;;;;;;;13.1;11.7;;;;;;;9.82;100;93948.16;;;;
2019/11/02 01:35:18;;;;;;;13.1;11.7;;;;;;;9.82;100;93948.16;;;;
2019/11/02 01:36:19;;;;;;;13.1;11.7;;;;;;;9.82;100;93948.16;;;;
2019/11/02 01:37:20;;;;;;;12.35;10.85;;;;;;;9.83;100;93943.58;;;;
2019/11/02 01:38:21;;;;;;;12.35;10.85;;;;;;;9.83;100;93943.58;;;;
2019/11/02 01:39:23;;;;;;;12.35;10.85;;;;;;;9.83;100;93943.58;;;;
2019/11/02 01:40:25;;;;;;;12.35;10.85;;;;;;;9.83;100;93943.58;;;;
2019/11/02 01:41:26;;;;;;;12.35;10.85;;;;;;;9.83;100;93943.58;;;;
2019/11/02 01:42:27;;;;;;;12.35;10.85;;;;;;;9.83;100;93943.58;;;;
2019/11/02 01:43:28;;;;;;;12.35;10.85;;;;;;;9.83;100;93943.58;;;;
2019/11/02 01:44:29;;;;;;;12.35;10.85;;;;;;;9.83;100;93943.58;;;;
2019/11/02 01:45:30;;;;;;;12.35;10.85;;;;;;;9.83;100;93943.58;;;;
2019/11/02 01:46:32;;;;;;;12.35;10.85;;;;;;;9.83;100;93943.58;;;;
2019/11/02 01:47:33;;;;;;;12.35;10.85;;;;;;;9.83;100;93943.58;;;;
2019/11/02 01:48:34;;;;;;;12.35;10.85;;;;;;;9.83;100;93943.58;;;;
2019/11/02 01:49:35;;;;;;;12.35;10.85;;;;;;;9.83;100;93943.58;;;;
2019/11/02 01:50:36;;;;;;;12.35;10.85;;;;;;;9.83;100;93943.58;;;;
2019/11/02 01:51:37;;;;;;;12.35;10.85;;;;;;;9.83;100;93943.58;;;;
2019/11/02 01:52:39;;;;;;;12.35;10.85;;;;;;;9.83;100;93943.58;;;;
2019/11/02 01:53:40;;;;;;;12.35;10.85;;;;;;;9.83;100;93943.58;;;;
2019/11/02 01:54:41;;;;;;;12.35;10.85;;;;;;;9.83;100;93943.58;;;;
2019/11/02 01:55:42;;;;;;;12.35;10.85;;;;;;;9.83;100;93943.58;;;;
2019/11/02 01:56:43;;;;;;;12.35;10.85;;;;;;;9.83;100;93943.58;;;;
2019/11/02 01:57:44;;;;;;;12.35;10.85;;;;;;;9.83;100;93943.58;;;;
2019/11/02 01:58:45;;;;;;;8.100002;7.05;;;;;;;9.9;100;93942.27;;;;
2019/11/02 01:59:47;;;;;;;8.100002;7.05;;;;;;;9.9;100;93942.27;;;;
2019/11/02 02:00:48;;;;;;;8.100002;7.05;;;;;;;9.9;100;93942.27;;;;
2019/11/02 02:01:49;;;;;;;8.100002;7.05;;;;;;;9.9;100;93942.27;;;;
2019/11/02 02:02:53;;;;;;;8.100002;7.05;;;;;;;9.9;100;93942.27;;;;
2019/11/02 02:03:57;;;;;;;8.100002;7.05;;;;;;;9.9;100;93942.27;;;;
2019/11/02 02:05:02;;;;;;;8.100002;7.05;;;;;;;9.9;100;93942.27;;;;
2019/11/02 02:06:05;;;;;;;8.100002;7.05;;;;;;;9.9;100;93942.27;;;;
2019/11/02 02:07:06;;;;;;;8.100002;7.05;;;;;;;9.9;100;93942.27;;;;
2019/11/02 02:08:08;;;;;;;8.100002;7.05;;;;;;;9.9;100;93942.27;;;;
2019/11/02 02:09:09;;;;;;;8.100002;7.05;;;;;;;9.9;100;93942.27;;;;
2019/11/02 02:10:10;;;;;;;7;6.35;;;;;;;9.86;100;93939;;;;
2019/11/02 02:11:12;;;;;;;7;6.35;;;;;;;9.86;100;93939;;;;
2019/11/02 02:12:13;;;;;;;7;6.35;;;;;;;9.86;100;93939;;;;
2019/11/02 02:13:14;;;;;;;7;6.35;;;;;;;9.86;100;93939;;;;
2019/11/02 02:14:15;;;;;;;7;6.35;;;;;;;9.86;100;93939;;;;
2019/11/02 02:15:47;;;;;;;7;6.35;;;;;;;9.86;100;93939;;;;
2019/11/02 02:16:49;;;;;;;7;6.35;;;;;;;9.86;100;93939;;;;
2019/11/02 02:17:50;;;;;;;7;6.35;;;;;;;9.86;100;93939;;;;
2019/11/02 02:18:51;;;;;;;7;6.35;;;;;;;9.86;100;93939;;;;
2019/11/02 02:19:52;;;;;;;6.500001;5.9;;;;;;;9.87;100;93910.99;;;;
2019/11/02 02:20:55;;;;;;;6.500001;5.9;;;;;;;9.87;100;93910.99;;;;
2019/11/02 02:21:56;;;;;;;6.500001;5.9;;;;;;;9.87;100;93910.99;;;;
2019/11/02 02:22:57;;;;;;;6.500001;5.9;;;;;;;9.87;100;93910.99;;;;
2019/11/02 02:23:59;;;;;;;6.500001;5.9;;;;;;;9.87;100;93910.99;;;;
2019/11/02 02:25:00;;;;;;;6.500001;5.9;;;;;;;9.87;100;93910.99;;;;
2019/11/02 02:26:01;;;;;;;6.500001;5.9;;;;;;;9.87;100;93910.99;;;;
2019/11/02 02:27:02;;;;;;;6.500001;5.9;;;;;;;9.87;100;93910.99;;;;
2019/11/02 02:28:04;;;;;;;6.500001;5.9;;;;;;;9.87;100;93910.99;;;;
2019/11/02 02:29:05;;;;;;;6.500001;5.9;;;;;;;9.87;100;93910.99;;;;
2019/11/02 02:30:06;;;;;;;6.500001;5.9;;;;;;;9.87;100;93910.99;;;;
2019/11/02 02:31:09;;;;;;;6.75;6.1;;;;;;;9.82;100;93904.61;;;;
2019/11/02 02:32:10;;;;;;;6.75;6.1;;;;;;;9.82;100;93904.61;;;;
2019/11/02 02:33:11;;;;;;;6.75;6.1;;;;;;;9.82;100;93904.61;;;;
2019/11/02 02:34:12;;;;;;;6.75;6.1;;;;;;;9.82;100;93904.61;;;;
2019/11/02 02:35:14;;;;;;;6.75;6.1;;;;;;;9.82;100;93904.61;;;;
2019/11/02 02:36:15;;;;;;;6.75;6.1;;;;;;;9.82;100;93904.61;;;;
2019/11/02 02:37:16;;;;;;;6.75;6.1;;;;;;;9.82;100;93904.61;;;;
2019/11/02 02:38:17;;;;;;;6.75;6.1;;;;;;;9.82;100;93904.61;;;;
2019/11/02 02:39:18;;;;;;;6.75;6.1;;;;;;;9.82;100;93904.61;;;;
2019/11/02 02:40:20;;;;;;;6.75;6.1;;;;;;;9.82;100;93904.61;;;;
2019/11/02 02:41:21;;;;;;;6.05;5.55;;;;;;;9.87;100;93897.51;;;;
2019/11/02 02:42:22;;;;;;;6.05;5.55;;;;;;;9.87;100;93897.51;;;;
2019/11/02 02:43:23;;;;;;;6.05;5.55;;;;;;;9.87;100;93897.51;;;;
2019/11/02 02:44:25;;;;;;;6.05;5.55;;;;;;;9.87;100;93897.51;;;;
2019/11/02 02:45:26;;;;;;;6.05;5.55;;;;;;;9.87;100;93897.51;;;;
2019/11/02 02:46:27;;;;;;;6.05;5.55;;;;;;;9.87;100;93897.51;;;;
2019/11/02 02:47:28;;;;;;;6.05;5.55;;;;;;;9.87;100;93897.51;;;;
2019/11/02 02:48:29;;;;;;;6.05;5.55;;;;;;;9.87;100;93897.51;;;;
2019/11/02 02:49:31;;;;;;;6.05;5.55;;;;;;;9.87;100;93897.51;;;;
2019/11/02 02:50:32;;;;;;;6.05;5.55;;;;;;;9.87;100;93897.51;;;;
2019/11/02 02:51:33;;;;;;;6.05;5.55;;;;;;;9.87;100;93897.51;;;;
2019/11/02 02:52:34;;;;;;;5.9;5.2;;;;;;;9.86;100;93882.39;;;;
2019/11/02 02:53:35;;;;;;;5.9;5.2;;;;;;;9.86;100;93882.39;;;;
2019/11/02 02:54:37;;;;;;;5.9;5.2;;;;;;;9.86;100;93882.39;;;;
2019/11/02 02:55:38;;;;;;;5.9;5.2;;;;;;;9.86;100;93882.39;;;;
2019/11/02 02:56:39;;;;;;;5.9;5.2;;;;;;;9.86;100;93882.39;;;;
2019/11/02 02:57:40;;;;;;;5.9;5.2;;;;;;;9.86;100;93882.39;;;;
2019/11/02 02:58:42;;;;;;;5.9;5.2;;;;;;;9.86;100;93882.39;;;;
2019/11/02 02:59:43;;;;;;;5.9;5.2;;;;;;;9.86;100;93882.39;;;;
2019/11/02 03:00:45;;;;;;;5.9;5.2;;;;;;;9.86;100;93882.39;;;;
2019/11/02 03:01:46;;;;;;;5.9;5.2;;;;;;;9.86;100;93882.39;;;;
2019/11/02 03:02:47;;;;;;;5.800001;5.2;;;;;;;9.9;100;93856.12;;;;
2019/11/02 03:03:48;;;;;;;5.800001;5.2;;;;;;;9.9;100;93856.12;;;;
2019/11/02 03:04:49;;;;;;;5.800001;5.2;;;;;;;9.9;100;93856.12;;;;
2019/11/02 03:05:50;;;;;;;5.800001;5.2;;;;;;;9.9;100;93856.12;;;;
2019/11/02 03:06:51;;;;;;;5.800001;5.2;;;;;;;9.9;100;93856.12;;;;
2019/11/02 03:07:53;;;;;;;5.800001;5.2;;;;;;;9.9;100;93856.12;;;;
2019/11/02 03:08:55;;;;;;;5.800001;5.2;;;;;;;9.9;100;93856.12;;;;
2019/11/02 03:09:56;;;;;;;5.800001;5.2;;;;;;;9.9;100;93856.12;;;;
2019/11/02 03:10:57;;;;;;;5.800001;5.2;;;;;;;9.9;100;93856.12;;;;
2019/11/02 03:11:58;;;;;;;5.800001;5.2;;;;;;;9.9;100;93856.12;;;;
2019/11/02 03:12:59;;;;;;;5.149999;4.649999;;;;;;;9.87;100;93853.44;;;;
2019/11/02 03:14:01;;;;;;;5.149999;4.649999;;;;;;;9.87;100;93853.44;;;;
2019/11/02 03:15:02;;;;;;;5.149999;4.649999;;;;;;;9.87;100;93853.44;;;;
2019/11/02 03:16:03;;;;;;;5.149999;4.649999;;;;;;;9.87;100;93853.44;;;;
2019/11/02 03:17:05;;;;;;;5.149999;4.649999;;;;;;;9.87;100;93853.44;;;;
2019/11/02 03:18:06;;;;;;;5.149999;4.649999;;;;;;;9.87;100;93853.44;;;;
2019/11/02 03:19:07;;;;;;;5.149999;4.649999;;;;;;;9.87;100;93853.44;;;;
2019/11/02 03:20:08;;;;;;;5.149999;4.649999;;;;;;;9.87;100;93853.44;;;;
2019/11/02 03:21:09;;;;;;;5.149999;4.649999;;;;;;;9.87;100;93853.44;;;;
2019/11/02 03:22:11;;;;;;;5.149999;4.649999;;;;;;;9.87;100;93853.44;;;;
2019/11/02 03:23:12;;;;;;;5.149999;4.649999;;;;;;;9.87;100;93853.44;;;;
2019/11/02 03:24:13;;;;;;;5.5;5;;;;;;;9.92;100;93835.51;;;;
2019/11/02 03:25:14;;;;;;;5.5;5;;;;;;;9.92;100;93835.51;;;;
2019/11/02 03:26:16;;;;;;;5.5;5;;;;;;;9.92;100;93835.51;;;;
2019/11/02 03:27:17;;;;;;;5.5;5;;;;;;;9.92;100;93835.51;;;;
2019/11/02 03:28:18;;;;;;;5.5;5;;;;;;;9.92;100;93835.51;;;;
2019/11/02 03:29:19;;;;;;;5.5;5;;;;;;;9.92;100;93835.51;;;;
2019/11/02 03:30:21;;;;;;;5.5;5;;;;;;;9.92;100;93835.51;;;;
2019/11/02 03:31:22;;;;;;;5.5;5;;;;;;;9.92;100;93835.51;;;;
2019/11/02 03:32:23;;;;;;;5.5;5;;;;;;;9.92;100;93835.51;;;;
2019/11/02 03:33:24;;;;;;;5.5;5;;;;;;;9.92;100;93835.51;;;;
2019/11/02 03:34:25;;;;;;;4.9;4.5;;;;;;;9.91;100;93836.19;;;;
2019/11/02 03:35:26;;;;;;;4.9;4.5;;;;;;;9.91;100;93836.19;;;;
2019/11/02 03:36:28;;;;;;;4.9;4.5;;;;;;;9.91;100;93836.19;;;;
2019/11/02 03:37:29;;;;;;;4.9;4.5;;;;;;;9.91;100;93836.19;;;;
2019/11/02 03:38:30;;;;;;;4.9;4.5;;;;;;;9.91;100;93836.19;;;;
2019/11/02 03:39:31;;;;;;;4.9;4.5;;;;;;;9.91;100;93836.19;;;;
2019/11/02 03:40:32;;;;;;;4.9;4.5;;;;;;;9.91;100;93836.19;;;;
2019/11/02 03:41:33;;;;;;;4.9;4.5;;;;;;;9.91;100;93836.19;;;;
2019/11/02 03:42:35;;;;;;;4.9;4.5;;;;;;;9.91;100;93836.19;;;;
2019/11/02 03:43:36;;;;;;;4.9;4.5;;;;;;;9.91;100;93836.19;;;;
2019/11/02 03:44:38;;;;;;;4.9;4.5;;;;;;;9.91;100;93836.19;;;;
2019/11/02 03:45:45;;;;;;;5.749999;4.199999;;;;;;;9.93;100;93834.83;;;;
2019/11/02 03:46:46;;;;;;;5.749999;4.199999;;;;;;;9.93;100;93834.83;;;;
2019/11/02 03:48:01;;;;;;;5.749999;4.199999;;;;;;;9.93;100;93834.83;;;;
2019/11/02 03:49:06;;;;;;;5.749999;4.199999;;;;;;;9.93;100;93834.83;;;;
2019/11/02 03:50:15;;;;;;;5.749999;4.199999;;;;;;;9.93;100;93834.83;;;;
2019/11/02 03:51:20;;;;;;;5.749999;4.199999;;;;;;;9.93;100;93834.83;;;;
2019/11/02 03:52:21;;;;;;;5.749999;4.199999;;;;;;;9.93;100;93834.83;;;;
2019/11/02 03:53:23;;;;;;;5.749999;4.199999;;;;;;;9.93;100;93834.83;;;;
2019/11/02 03:54:25;;;;;;;5.749999;4.199999;;;;;;;9.93;100;93834.83;;;;
2019/11/02 03:55:26;;;;;;;4.900001;3.75;;;;;;;9.92;100;93823.78;;;;
2019/11/02 03:56:27;;;;;;;4.900001;3.75;;;;;;;9.92;100;93823.78;;;;
2019/11/02 03:57:29;;;;;;;4.900001;3.75;;;;;;;9.92;100;93823.78;;;;
2019/11/02 03:58:33;;;;;;;4.900001;3.75;;;;;;;9.92;100;93823.78;;;;
2019/11/02 03:59:35;;;;;;;4.900001;3.75;;;;;;;9.92;100;93823.78;;;;
2019/11/02 04:00:37;;;;;;;4.900001;3.75;;;;;;;9.92;100;93823.78;;;;
2019/11/02 04:01:39;;;;;;;4.900001;3.75;;;;;;;9.92;100;93823.78;;;;
2019/11/02 04:02:41;;;;;;;4.900001;3.75;;;;;;;9.92;100;93823.78;;;;
2019/11/02 04:03:44;;;;;;;4.900001;3.75;;;;;;;9.92;100;93823.78;;;;
2019/11/02 04:04:45;;;;;;;4.900001;3.75;;;;;;;9.92;100;93823.78;;;;
2019/11/02 04:05:46;;;;;;;4.900001;3.75;;;;;;;9.92;100;93823.78;;;;
2019/11/02 04:06:47;;;;;;;4.05;3.5;;;;;;;9.96;100;93806;;;;
2019/11/02 04:07:49;;;;;;;4.05;3.5;;;;;;;9.96;100;93806;;;;
2019/11/02 04:08:50;;;;;;;4.05;3.5;;;;;;;9.96;100;93806;;;;
2019/11/02 04:09:51;;;;;;;4.05;3.5;;;;;;;9.96;100;93806;;;;
2019/11/02 04:10:53;;;;;;;4.05;3.5;;;;;;;9.96;100;93806;;;;
2019/11/02 04:11:54;;;;;;;4.05;3.5;;;;;;;9.96;100;93806;;;;
2019/11/02 04:12:55;;;;;;;4.05;3.5;;;;;;;9.96;100;93806;;;;
2019/11/02 04:13:56;;;;;;;4.05;3.5;;;;;;;9.96;100;93806;;;;
2019/11/02 04:14:57;;;;;;;4.05;3.5;;;;;;;9.96;100;93806;;;;
2019/11/02 04:15:58;;;;;;;4.05;3.5;;;;;;;9.96;100;93806;;;;
2019/11/02 04:16:59;;;;;;;3.3;3;;;;;;;9.93;100;93796.14;;;;
2019/11/02 04:18:44;;;;;;;3.3;3;;;;;;;9.93;100;93796.14;;;;
2019/11/02 04:19:52;;;;;;;3.3;3;;;;;;;9.93;100;93796.14;;;;
2019/11/02 04:20:53;;;;;;;3.3;3;;;;;;;9.93;100;93796.14;;;;
2019/11/02 04:21:55;;;;;;;3.3;3;;;;;;;9.93;100;93796.14;;;;
2019/11/02 04:22:56;;;;;;;3.3;3;;;;;;;9.93;100;93796.14;;;;
2019/11/02 04:23:57;;;;;;;3.3;3;;;;;;;9.93;100;93796.14;;;;
2019/11/02 04:24:58;;;;;;;3.3;3;;;;;;;9.93;100;93796.14;;;;
2019/11/02 04:26:00;;;;;;;3.3;3;;;;;;;9.93;100;93796.14;;;;
2019/11/02 04:27:04;;;;;;;3.3;3;;;;;;;9.93;100;93796.14;;;;
2019/11/02 04:28:26;;;;;;;3;2.35;;;;;;;9.98;100;93789.01;;;;
2019/11/02 04:29:29;;;;;;;3;2.35;;;;;;;9.98;100;93789.01;;;;
2019/11/02 04:30:31;;;;;;;3;2.35;;;;;;;9.98;100;93789.01;;;;
2019/11/02 04:31:38;;;;;;;3;2.35;;;;;;;9.98;100;93789.01;;;;
2019/11/02 04:32:39;;;;;;;3;2.35;;;;;;;9.98;100;93789.01;;;;
2019/11/02 04:33:49;;;;;;;3;2.35;;;;;;;9.98;100;93789.01;;;;
2019/11/02 04:34:51;;;;;;;3;2.35;;;;;;;9.98;100;93789.01;;;;
2019/11/02 04:35:54;;;;;;;3;2.35;;;;;;;9.98;100;93789.01;;;;
2019/11/02 04:36:58;;;;;;;3;2.35;;;;;;;9.98;100;93789.01;;;;
2019/11/02 04:38:00;;;;;;;2.6;2.3;;;;;;;9.97;100;93785.63;;;;
2019/11/02 04:39:01;;;;;;;2.6;2.3;;;;;;;9.97;100;93785.63;;;;
2019/11/02 04:40:03;;;;;;;2.6;2.3;;;;;;;9.97;100;93785.63;;;;
2019/11/02 04:41:07;;;;;;;2.6;2.3;;;;;;;9.97;100;93785.63;;;;
2019/11/02 04:43:16;;;;;;;2.6;2.3;;;;;;;9.97;100;93785.63;;;;
2019/11/02 04:44:20;;;;;;;2.6;2.3;;;;;;;9.97;100;93785.63;;;;
2019/11/02 04:45:22;;;;;;;2.6;2.3;;;;;;;9.97;100;93785.63;;;;
2019/11/02 04:46:23;;;;;;;2.6;2.3;;;;;;;9.97;100;93785.63;;;;
2019/11/02 04:47:29;;;;;;;2.6;2.3;;;;;;;9.97;100;93785.63;;;;
2019/11/02 04:48:33;;;;;;;2.65;2.45;;;;;;;10.01;100;93786.31;;;;
2019/11/02 04:49:37;;;;;;;2.65;2.45;;;;;;;10.01;100;93786.31;;;;
2019/11/02 04:50:41;;;;;;;2.65;2.45;;;;;;;10.01;100;93786.31;;;;
2019/11/02 04:51:51;;;;;;;2.65;2.45;;;;;;;10.01;100;93786.31;;;;
2019/11/02 04:52:52;;;;;;;2.65;2.45;;;;;;;10.01;100;93786.31;;;;
2019/11/02 04:53:54;;;;;;;2.65;2.45;;;;;;;10.01;100;93786.31;;;;
2019/11/02 04:54:56;;;;;;;2.65;2.45;;;;;;;10.01;100;93786.31;;;;
2019/11/02 04:56:00;;;;;;;2.65;2.45;;;;;;;10.01;100;93786.31;;;;
2019/11/02 04:57:18;;;;;;;2.65;2.45;;;;;;;10.01;100;93786.31;;;;
2019/11/02 04:58:25;;;;;;;2.65;2.45;;;;;;;10.01;100;93786.31;;;;
2019/11/02 04:59:28;;;;;;;2.3;2.1;;;;;;;9.96;100;93777.28;;;;
2019/11/02 05:00:29;;;;;;;2.3;2.1;;;;;;;9.96;100;93777.28;;;;
2019/11/02 05:01:30;;;;;;;2.3;2.1;;;;;;;9.96;100;93777.28;;;;
2019/11/02 05:02:32;;;;;;;2.3;2.1;;;;;;;9.96;100;93777.28;;;;
2019/11/02 05:03:33;;;;;;;2.3;2.1;;;;;;;9.96;100;93777.28;;;;
2019/11/02 05:04:34;;;;;;;2.3;2.1;;;;;;;9.96;100;93777.28;;;;
2019/11/02 05:05:35;;;;;;;2.3;2.1;;;;;;;9.96;100;93777.28;;;;
2019/11/02 05:06:36;;;;;;;2.3;2.1;;;;;;;9.96;100;93777.28;;;;
2019/11/02 05:07:38;;;;;;;2.3;2.1;;;;;;;9.96;100;93777.28;;;;
2019/11/02 05:08:39;;;;;;;2.3;2.1;;;;;;;9.96;100;93777.28;;;;
2019/11/02 05:09:40;;;;;;;2.2;2;;;;;;;9.96;100;93774.18;;;;
2019/11/02 05:10:42;;;;;;;2.2;2;;;;;;;9.96;100;93774.18;;;;
2019/11/02 05:11:45;;;;;;;2.2;2;;;;;;;9.96;100;93774.18;;;;
2019/11/02 05:12:48;;;;;;;2.2;2;;;;;;;9.96;100;93774.18;;;;
2019/11/02 05:13:49;;;;;;;2.2;2;;;;;;;9.96;100;93774.18;;;;
2019/11/02 05:14:50;;;;;;;2.2;2;;;;;;;9.96;100;93774.18;;;;
2019/11/02 05:15:51;;;;;;;2.2;2;;;;;;;9.96;100;93774.18;;;;
2019/11/02 05:16:52;;;;;;;2.2;2;;;;;;;9.96;100;93774.18;;;;
2019/11/02 05:17:53;;;;;;;2.2;2;;;;;;;9.96;100;93774.18;;;;
2019/11/02 05:18:55;;;;;;;2.2;2;;;;;;;9.96;100;93774.18;;;;
2019/11/02 05:19:56;;;;;;;2.2;2;;;;;;;9.96;100;93774.18;;;;
2019/11/02 05:20:57;;;;;;;2.1;1.9;;;;;;;9.91;100;93786.16;;;;
2019/11/02 05:21:58;;;;;;;2.1;1.9;;;;;;;9.91;100;93786.16;;;;
2019/11/02 05:22:59;;;;;;;2.1;1.9;;;;;;;9.91;100;93786.16;;;;
2019/11/02 05:24:00;;;;;;;2.1;1.9;;;;;;;9.91;100;93786.16;;;;
2019/11/02 05:25:02;;;;;;;2.1;1.9;;;;;;;9.91;100;93786.16;;;;
2019/11/02 05:26:03;;;;;;;2.1;1.9;;;;;;;9.91;100;93786.16;;;;
2019/11/02 05:27:05;;;;;;;2.1;1.9;;;;;;;9.91;100;93786.16;;;;
2019/11/02 05:28:06;;;;;;;2.1;1.9;;;;;;;9.91;100;93786.16;;;;
2019/11/02 05:29:07;;;;;;;2.1;1.9;;;;;;;9.91;100;93786.16;;;;
2019/11/02 05:30:09;;;;;;;2.1;1.9;;;;;;;9.91;100;93786.16;;;;
2019/11/02 05:31:10;;;;;;;2.05;1.95;;;;;;;9.94;100;93792.91;;;;
2019/11/02 05:32:11;;;;;;;2.05;1.95;;;;;;;9.94;100;93792.91;;;;
2019/11/02 05:33:12;;;;;;;2.05;1.95;;;;;;;9.94;100;93792.91;;;;
2019/11/02 05:34:14;;;;;;;2.05;1.95;;;;;;;9.94;100;93792.91;;;;
2019/11/02 05:35:15;;;;;;;2.05;1.95;;;;;;;9.94;100;93792.91;;;;
2019/11/02 05:36:16;;;;;;;2.05;1.95;;;;;;;9.94;100;93792.91;;;;
2019/11/02 05:37:17;;;;;;;2.05;1.95;;;;;;;9.94;100;93792.91;;;;
2019/11/02 05:38:18;;;;;;;2.05;1.95;;;;;;;9.94;100;93792.91;;;;
2019/11/02 05:39:19;;;;;;;2.05;1.95;;;;;;;9.94;100;93792.91;;;;
2019/11/02 05:40:20;;;;;;;2.05;1.95;;;;;;;9.94;100;93792.91;;;;
2019/11/02 05:41:22;;;;;;;2.05;1.95;;;;;;;9.94;100;93792.91;;;;
2019/11/02 05:42:24;;;;;;;2.2;2;;;;;;;9.92;100;93796.83;;;;
2019/11/02 05:43:25;;;;;;;2.2;2;;;;;;;9.92;100;93796.83;;;;
2019/11/02 05:44:30;;;;;;;2.2;2;;;;;;;9.92;100;93796.83;;;;
2019/11/02 05:45:32;;;;;;;2.2;2;;;;;;;9.92;100;93796.83;;;;
2019/11/02 05:46:33;;;;;;;2.2;2;;;;;;;9.92;100;93796.83;;;;
2019/11/02 05:47:34;;;;;;;2.2;2;;;;;;;9.92;100;93796.83;;;;
2019/11/02 05:48:36;;;;;;;2.2;2;;;;;;;9.92;100;93796.83;;;;
2019/11/02 05:49:37;;;;;;;2.2;2;;;;;;;9.92;100;93796.83;;;;
2019/11/02 05:50:39;;;;;;;2.2;2;;;;;;;9.92;100;93796.83;;;;
2019/11/02 05:51:41;;;;;;;2.2;2;;;;;;;9.92;100;93796.83;;;;
2019/11/02 05:52:43;;;;;;;2.25;2.05;;;;;;;9.95;100;93781.98;;;;
2019/11/02 05:53:44;;;;;;;2.25;2.05;;;;;;;9.95;100;93781.98;;;;
2019/11/02 05:54:45;;;;;;;2.25;2.05;;;;;;;9.95;100;93781.98;;;;
2019/11/02 05:55:47;;;;;;;2.25;2.05;;;;;;;9.95;100;93781.98;;;;
2019/11/02 05:56:48;;;;;;;2.25;2.05;;;;;;;9.95;100;93781.98;;;;
2019/11/02 05:57:49;;;;;;;2.25;2.05;;;;;;;9.95;100;93781.98;;;;
2019/11/02 05:58:51;;;;;;;2.25;2.05;;;;;;;9.95;100;93781.98;;;;
2019/11/02 05:59:52;;;;;;;2.25;2.05;;;;;;;9.95;100;93781.98;;;;
2019/11/02 06:00:53;;;;;;;2.25;2.05;;;;;;;9.95;100;93781.98;;;;
2019/11/02 06:01:54;;;;;;;2.25;2.05;;;;;;;9.95;100;93781.98;;;;
2019/11/02 06:02:56;;;;;;;3.1;2.2;;;;;;;9.92;100;93776.2;;;;
2019/11/02 06:03:57;;;;;;;3.1;2.2;;;;;;;9.92;100;93776.2;;;;
2019/11/02 06:04:58;;;;;;;3.1;2.2;;;;;;;9.92;100;93776.2;;;;
2019/11/02 06:05:59;;;;;;;3.1;2.2;;;;;;;9.92;100;93776.2;;;;
2019/11/02 06:07:00;;;;;;;3.1;2.2;;;;;;;9.92;100;93776.2;;;;
2019/11/02 06:08:01;;;;;;;3.1;2.2;;;;;;;9.92;100;93776.2;;;;
2019/11/02 06:09:03;;;;;;;3.1;2.2;;;;;;;9.92;100;93776.2;;;;
2019/11/02 06:10:04;;;;;;;3.1;2.2;;;;;;;9.92;100;93776.2;;;;
2019/11/02 06:11:06;;;;;;;3.1;2.2;;;;;;;9.92;100;93776.2;;;;
2019/11/02 06:12:07;;;;;;;3.1;2.2;;;;;;;9.92;100;93776.2;;;;
2019/11/02 06:13:08;;;;;;;3.1;2.2;;;;;;;9.92;100;93776.2;;;;
2019/11/02 06:14:09;;;;;;;3.55;2.4;;;;;;;9.94;100;93749.25;;;;
2019/11/02 06:15:10;;;;;;;3.55;2.4;;;;;;;9.94;100;93749.25;;;;
2019/11/02 06:16:13;;;;;;;3.55;2.4;;;;;;;9.94;100;93749.25;;;;
2019/11/02 06:17:14;;;;;;;3.55;2.4;;;;;;;9.94;100;93749.25;;;;
2019/11/02 06:18:15;;;;;;;3.55;2.4;;;;;;;9.94;100;93749.25;;;;
2019/11/02 06:19:16;;;;;;;3.55;2.4;;;;;;;9.94;100;93749.25;;;;
2019/11/02 06:20:17;;;;;;;3.55;2.4;;;;;;;9.94;100;93749.25;;;;
2019/11/02 06:21:19;;;;;;;3.55;2.4;;;;;;;9.94;100;93749.25;;;;
2019/11/02 06:22:20;;;;;;;3.55;2.4;;;;;;;9.94;100;93749.25;;;;
2019/11/02 06:23:21;;;;;;;3.55;2.4;;;;;;;9.94;100;93749.25;;;;
2019/11/02 06:24:22;;;;;;;4.7;2.15;;;;;;;9.92;100;93751.93;;;;
2019/11/02 06:25:23;;;;;;;4.7;2.15;;;;;;;9.92;100;93751.93;;;;
2019/11/02 06:26:24;;;;;;;4.7;2.15;;;;;;;9.92;100;93751.93;;;;
2019/11/02 06:27:26;;;;;;;4.7;2.15;;;;;;;9.92;100;93751.93;;;;
2019/11/02 06:28:27;;;;;;;4.7;2.15;;;;;;;9.92;100;93751.93;;;;
2019/11/02 06:29:28;;;;;;;4.7;2.15;;;;;;;9.92;100;93751.93;;;;
2019/11/02 06:30:29;;;;;;;4.7;2.15;;;;;;;9.92;100;93751.93;;;;
2019/11/02 06:31:30;;;;;;;4.7;2.15;;;;;;;9.92;100;93751.93;;;;